sensor_id;sensor_type;location;lat;lon;timestamp;P1;durP1;ratioP1;P2;durP2;ratioP2
41629;SDS011;27322;49.488;8.480;2023-04-16T00:00:37;11.57;;;8.20;;
41629;SDS011;27322;49.488;8.480;2023-04-16T00:03:03;11.82;;;8.38;;
41629;SDS011;27322;49.488;8.480;2023-04-16T00:05:28;11.23;;;8.25;;
41629;SDS011;27322;49.488;8.480;2023-04-16T00:07:54;13.52;;;9.30;;
41629;SDS011;27322;49.488;8.480;2023-04-16T00:10:20;12.45;;;8.88;;
41629;SDS011;27322;49.488;8.480;2023-04-16T00:12:45;11.93;;;8.60;;
41629;SDS011;27322;49.488;8.480;2023-04-16T00:15:11;14.98;;;9.43;;
41629;SDS011;27322;49.488;8.480;2023-04-16T00:17:36;14.32;;;10.20;;
41629;SDS011;27322;49.488;8.480;2023-04-16T00:20:02;14.75;;;10.13;;
41629;SDS011;27322;49.488;8.480;2023-04-16T00:22:28;16.05;;;10.75;;
41629;SDS011;27322;49.488;8.480;2023-04-16T00:24:53;15.43;;;11.02;;
41629;SDS011;27322;49.488;8.480;2023-04-16T00:27:19;15.18;;;10.98;;
41629;SDS011;27322;49.488;8.480;2023-04-16T00:29:45;14.68;;;10.80;;
41629;SDS011;27322;49.488;8.480;2023-04-16T00:32:10;15.68;;;11.32;;
41629;SDS011;27322;49.488;8.480;2023-04-16T00:34:36;15.85;;;11.35;;
41629;SDS011;27322;49.488;8.480;2023-04-16T00:37:01;17.85;;;11.85;;
41629;SDS011;27322;49.488;8.480;2023-04-16T00:39:27;17.25;;;11.73;;
41629;SDS011;27322;49.488;8.480;2023-04-16T00:41:53;16.63;;;11.23;;
41629;SDS011;27322;49.488;8.480;2023-04-16T00:44:18;15.30;;;11.23;;
41629;SDS011;27322;49.488;8.480;2023-04-16T00:46:44;16.15;;;11.02;;
41629;SDS011;27322;49.488;8.480;2023-04-16T00:49:10;18.67;;;11.48;;
41629;SDS011;27322;49.488;8.480;2023-04-16T00:51:36;16.92;;;11.45;;
41629;SDS011;27322;49.488;8.480;2023-04-16T00:54:02;16.35;;;11.20;;
41629;SDS011;27322;49.488;8.480;2023-04-16T00:56:28;16.25;;;11.88;;
41629;SDS011;27322;49.488;8.480;2023-04-16T00:58:54;16.27;;;11.32;;
41629;SDS011;27322;49.488;8.480;2023-04-16T01:01:20;16.63;;;11.18;;
41629;SDS011;27322;49.488;8.480;2023-04-16T01:03:46;16.75;;;11.60;;
41629;SDS011;27322;49.488;8.480;2023-04-16T01:06:13;17.98;;;11.43;;
41629;SDS011;27322;49.488;8.480;2023-04-16T01:08:40;16.05;;;10.98;;
41629;SDS011;27322;49.488;8.480;2023-04-16T01:11:06;16.63;;;11.05;;
41629;SDS011;27322;49.488;8.480;2023-04-16T01:13:32;17.13;;;11.73;;
41629;SDS011;27322;49.488;8.480;2023-04-16T01:15:59;17.25;;;11.13;;
41629;SDS011;27322;49.488;8.480;2023-04-16T01:18:25;17.48;;;11.82;;
41629;SDS011;27322;49.488;8.480;2023-04-16T01:20:51;16.92;;;11.90;;
41629;SDS011;27322;49.488;8.480;2023-04-16T01:23:17;18.30;;;11.98;;
41629;SDS011;27322;49.488;8.480;2023-04-16T01:25:43;18.05;;;12.15;;
41629;SDS011;27322;49.488;8.480;2023-04-16T01:28:10;17.58;;;11.80;;
41629;SDS011;27322;49.488;8.480;2023-04-16T01:30:36;18.95;;;12.30;;
41629;SDS011;27322;49.488;8.480;2023-04-16T01:33:01;18.05;;;11.77;;
41629;SDS011;27322;49.488;8.480;2023-04-16T01:35:27;17.13;;;11.98;;
41629;SDS011;27322;49.488;8.480;2023-04-16T01:37:53;18.33;;;11.80;;
41629;SDS011;27322;49.488;8.480;2023-04-16T01:40:18;18.80;;;12.35;;
41629;SDS011;27322;49.488;8.480;2023-04-16T01:42:44;18.98;;;11.88;;
41629;SDS011;27322;49.488;8.480;2023-04-16T01:45:10;16.98;;;11.85;;
41629;SDS011;27322;49.488;8.480;2023-04-16T01:47:36;20.55;;;13.23;;
41629;SDS011;27322;49.488;8.480;2023-04-16T01:50:02;19.30;;;13.13;;
41629;SDS011;27322;49.488;8.480;2023-04-16T01:52:28;20.10;;;13.75;;
41629;SDS011;27322;49.488;8.480;2023-04-16T01:54:54;18.98;;;12.55;;
41629;SDS011;27322;49.488;8.480;2023-04-16T01:57:19;18.55;;;12.70;;
41629;SDS011;27322;49.488;8.480;2023-04-16T01:59:45;20.33;;;13.57;;
41629;SDS011;27322;49.488;8.480;2023-04-16T02:02:11;21.00;;;14.00;;
41629;SDS011;27322;49.488;8.480;2023-04-16T02:04:39;19.42;;;13.30;;
41629;SDS011;27322;49.488;8.480;2023-04-16T02:07:06;20.10;;;13.65;;
41629;SDS011;27322;49.488;8.480;2023-04-16T02:09:35;24.42;;;14.88;;
41629;SDS011;27322;49.488;8.480;2023-04-16T02:12:02;20.30;;;13.90;;
41629;SDS011;27322;49.488;8.480;2023-04-16T02:14:28;20.33;;;14.40;;
41629;SDS011;27322;49.488;8.480;2023-04-16T02:16:54;21.92;;;13.07;;
41629;SDS011;27322;49.488;8.480;2023-04-16T02:19:20;21.75;;;13.38;;
41629;SDS011;27322;49.488;8.480;2023-04-16T02:21:46;22.60;;;14.23;;
41629;SDS011;27322;49.488;8.480;2023-04-16T02:24:12;22.35;;;13.50;;
41629;SDS011;27322;49.488;8.480;2023-04-16T02:26:38;20.55;;;13.57;;
41629;SDS011;27322;49.488;8.480;2023-04-16T02:29:03;19.85;;;14.00;;
41629;SDS011;27322;49.488;8.480;2023-04-16T02:31:29;21.48;;;14.20;;
41629;SDS011;27322;49.488;8.480;2023-04-16T02:33:55;23.33;;;14.27;;
41629;SDS011;27322;49.488;8.480;2023-04-16T02:36:21;22.30;;;15.25;;
41629;SDS011;27322;49.488;8.480;2023-04-16T02:38:47;23.65;;;14.75;;
41629;SDS011;27322;49.488;8.480;2023-04-16T02:41:12;23.42;;;15.15;;
41629;SDS011;27322;49.488;8.480;2023-04-16T02:43:38;21.55;;;14.40;;
41629;SDS011;27322;49.488;8.480;2023-04-16T02:46:04;23.88;;;15.02;;
41629;SDS011;27322;49.488;8.480;2023-04-16T02:48:29;23.33;;;14.57;;
41629;SDS011;27322;49.488;8.480;2023-04-16T02:50:55;22.80;;;14.95;;
41629;SDS011;27322;49.488;8.480;2023-04-16T02:53:21;24.60;;;15.57;;
41629;SDS011;27322;49.488;8.480;2023-04-16T02:55:53;24.05;;;16.20;;
41629;SDS011;27322;49.488;8.480;2023-04-16T02:58:20;23.40;;;14.70;;
41629;SDS011;27322;49.488;8.480;2023-04-16T03:00:46;24.27;;;14.73;;
41629;SDS011;27322;49.488;8.480;2023-04-16T03:03:12;25.48;;;14.57;;
41629;SDS011;27322;49.488;8.480;2023-04-16T03:05:38;22.73;;;15.57;;
41629;SDS011;27322;49.488;8.480;2023-04-16T03:08:04;23.90;;;15.38;;
41629;SDS011;27322;49.488;8.480;2023-04-16T03:10:30;23.20;;;15.32;;
41629;SDS011;27322;49.488;8.480;2023-04-16T03:12:56;24.30;;;15.63;;
41629;SDS011;27322;49.488;8.480;2023-04-16T03:15:22;23.95;;;15.77;;
41629;SDS011;27322;49.488;8.480;2023-04-16T03:17:48;26.17;;;16.63;;
41629;SDS011;27322;49.488;8.480;2023-04-16T03:20:13;27.17;;;16.13;;
41629;SDS011;27322;49.488;8.480;2023-04-16T03:22:41;23.75;;;15.32;;
41629;SDS011;27322;49.488;8.480;2023-04-16T03:25:06;25.27;;;15.40;;
41629;SDS011;27322;49.488;8.480;2023-04-16T03:27:33;26.08;;;15.45;;
41629;SDS011;27322;49.488;8.480;2023-04-16T03:29:59;24.15;;;15.25;;
41629;SDS011;27322;49.488;8.480;2023-04-16T03:32:25;25.80;;;16.08;;
41629;SDS011;27322;49.488;8.480;2023-04-16T03:34:50;25.63;;;16.45;;
41629;SDS011;27322;49.488;8.480;2023-04-16T03:37:16;26.30;;;15.90;;
41629;SDS011;27322;49.488;8.480;2023-04-16T03:39:42;26.85;;;16.40;;
41629;SDS011;27322;49.488;8.480;2023-04-16T03:42:07;24.67;;;15.13;;
41629;SDS011;27322;49.488;8.480;2023-04-16T03:44:33;26.70;;;16.55;;
41629;SDS011;27322;49.488;8.480;2023-04-16T03:46:58;24.23;;;15.85;;
41629;SDS011;27322;49.488;8.480;2023-04-16T03:49:24;27.23;;;16.15;;
41629;SDS011;27322;49.488;8.480;2023-04-16T03:51:50;26.48;;;15.90;;
41629;SDS011;27322;49.488;8.480;2023-04-16T03:54:16;22.58;;;14.43;;
41629;SDS011;27322;49.488;8.480;2023-04-16T03:56:42;23.55;;;15.48;;
41629;SDS011;27322;49.488;8.480;2023-04-16T03:59:08;22.77;;;14.70;;
41629;SDS011;27322;49.488;8.480;2023-04-16T04:01:34;25.65;;;15.40;;
41629;SDS011;27322;49.488;8.480;2023-04-16T04:03:59;22.48;;;14.55;;
41629;SDS011;27322;49.488;8.480;2023-04-16T04:06:25;24.20;;;14.68;;
41629;SDS011;27322;49.488;8.480;2023-04-16T04:08:51;25.38;;;15.88;;
41629;SDS011;27322;49.488;8.480;2023-04-16T04:11:18;24.48;;;14.98;;
41629;SDS011;27322;49.488;8.480;2023-04-16T04:13:44;26.13;;;15.73;;
41629;SDS011;27322;49.488;8.480;2023-04-16T04:16:09;25.58;;;15.25;;
41629;SDS011;27322;49.488;8.480;2023-04-16T04:18:35;25.80;;;15.63;;
41629;SDS011;27322;49.488;8.480;2023-04-16T04:21:05;26.50;;;15.02;;
41629;SDS011;27322;49.488;8.480;2023-04-16T04:23:31;27.48;;;15.98;;
41629;SDS011;27322;49.488;8.480;2023-04-16T04:25:56;23.55;;;14.68;;
41629;SDS011;27322;49.488;8.480;2023-04-16T04:28:22;22.92;;;14.43;;
41629;SDS011;27322;49.488;8.480;2023-04-16T04:30:48;26.05;;;14.90;;
41629;SDS011;27322;49.488;8.480;2023-04-16T04:33:13;26.08;;;15.02;;
41629;SDS011;27322;49.488;8.480;2023-04-16T04:35:39;25.23;;;14.85;;
41629;SDS011;27322;49.488;8.480;2023-04-16T04:38:04;25.00;;;13.70;;
41629;SDS011;27322;49.488;8.480;2023-04-16T04:40:30;23.70;;;13.25;;
41629;SDS011;27322;49.488;8.480;2023-04-16T04:42:56;26.77;;;14.00;;
41629;SDS011;27322;49.488;8.480;2023-04-16T04:45:21;22.40;;;12.98;;
41629;SDS011;27322;49.488;8.480;2023-04-16T04:47:50;25.05;;;13.50;;
41629;SDS011;27322;49.488;8.480;2023-04-16T04:50:19;22.58;;;13.07;;
41629;SDS011;27322;49.488;8.480;2023-04-16T04:52:45;21.52;;;12.85;;
41629;SDS011;27322;49.488;8.480;2023-04-16T04:55:11;22.02;;;12.60;;
41629;SDS011;27322;49.488;8.480;2023-04-16T04:57:39;21.40;;;12.07;;
41629;SDS011;27322;49.488;8.480;2023-04-16T05:00:05;21.17;;;12.18;;
41629;SDS011;27322;49.488;8.480;2023-04-16T05:02:32;18.02;;;10.63;;
41629;SDS011;27322;49.488;8.480;2023-04-16T05:04:57;20.48;;;11.77;;
41629;SDS011;27322;49.488;8.480;2023-04-16T05:07:23;20.27;;;10.88;;
41629;SDS011;27322;49.488;8.480;2023-04-16T05:09:48;18.73;;;10.98;;
41629;SDS011;27322;49.488;8.480;2023-04-16T05:12:14;18.40;;;10.95;;
41629;SDS011;27322;49.488;8.480;2023-04-16T05:14:40;19.30;;;10.82;;
41629;SDS011;27322;49.488;8.480;2023-04-16T05:17:06;18.20;;;11.00;;
41629;SDS011;27322;49.488;8.480;2023-04-16T05:19:32;17.65;;;10.60;;
41629;SDS011;27322;49.488;8.480;2023-04-16T05:21:58;20.30;;;10.70;;
41629;SDS011;27322;49.488;8.480;2023-04-16T05:24:24;19.75;;;11.13;;
41629;SDS011;27322;49.488;8.480;2023-04-16T05:26:49;17.20;;;10.55;;
41629;SDS011;27322;49.488;8.480;2023-04-16T05:29:15;17.45;;;10.13;;
41629;SDS011;27322;49.488;8.480;2023-04-16T05:31:40;16.55;;;10.38;;
41629;SDS011;27322;49.488;8.480;2023-04-16T05:34:06;18.80;;;10.18;;
41629;SDS011;27322;49.488;8.480;2023-04-16T05:36:32;15.98;;;10.20;;
41629;SDS011;27322;49.488;8.480;2023-04-16T05:38:57;18.83;;;10.32;;
41629;SDS011;27322;49.488;8.480;2023-04-16T05:41:23;16.52;;;10.52;;
41629;SDS011;27322;49.488;8.480;2023-04-16T05:43:48;18.02;;;10.13;;
41629;SDS011;27322;49.488;8.480;2023-04-16T05:46:14;20.65;;;10.73;;
41629;SDS011;27322;49.488;8.480;2023-04-16T05:48:40;18.98;;;10.20;;
41629;SDS011;27322;49.488;8.480;2023-04-16T05:51:05;17.50;;;10.63;;
41629;SDS011;27322;49.488;8.480;2023-04-16T05:53:31;20.70;;;11.10;;
41629;SDS011;27322;49.488;8.480;2023-04-16T05:55:56;21.83;;;11.00;;
41629;SDS011;27322;49.488;8.480;2023-04-16T05:58:22;19.17;;;10.40;;
41629;SDS011;27322;49.488;8.480;2023-04-16T06:00:47;19.25;;;10.95;;
41629;SDS011;27322;49.488;8.480;2023-04-16T06:03:13;17.65;;;10.02;;
41629;SDS011;27322;49.488;8.480;2023-04-16T06:05:39;18.10;;;10.60;;
41629;SDS011;27322;49.488;8.480;2023-04-16T06:08:04;16.98;;;10.15;;
41629;SDS011;27322;49.488;8.480;2023-04-16T06:10:30;20.77;;;11.00;;
41629;SDS011;27322;49.488;8.480;2023-04-16T06:12:55;18.50;;;10.52;;
41629;SDS011;27322;49.488;8.480;2023-04-16T06:15:21;20.63;;;10.38;;
41629;SDS011;27322;49.488;8.480;2023-04-16T06:17:47;19.40;;;10.55;;
41629;SDS011;27322;49.488;8.480;2023-04-16T06:20:13;18.33;;;10.93;;
41629;SDS011;27322;49.488;8.480;2023-04-16T06:22:39;18.70;;;10.93;;
41629;SDS011;27322;49.488;8.480;2023-04-16T06:25:05;18.70;;;10.75;;
41629;SDS011;27322;49.488;8.480;2023-04-16T06:27:31;17.98;;;10.40;;
41629;SDS011;27322;49.488;8.480;2023-04-16T06:29:59;17.73;;;10.18;;
41629;SDS011;27322;49.488;8.480;2023-04-16T06:32:25;20.83;;;11.60;;
41629;SDS011;27322;49.488;8.480;2023-04-16T06:34:51;18.45;;;11.02;;
41629;SDS011;27322;49.488;8.480;2023-04-16T06:37:16;18.38;;;11.27;;
41629;SDS011;27322;49.488;8.480;2023-04-16T06:39:42;18.98;;;11.23;;
41629;SDS011;27322;49.488;8.480;2023-04-16T06:42:07;18.73;;;11.48;;
41629;SDS011;27322;49.488;8.480;2023-04-16T06:44:34;19.05;;;10.57;;
41629;SDS011;27322;49.488;8.480;2023-04-16T06:46:59;29.23;;;18.20;;
41629;SDS011;27322;49.488;8.480;2023-04-16T06:49:25;25.95;;;16.60;;
41629;SDS011;27322;49.488;8.480;2023-04-16T06:51:51;24.13;;;13.70;;
41629;SDS011;27322;49.488;8.480;2023-04-16T06:54:16;21.40;;;12.80;;
41629;SDS011;27322;49.488;8.480;2023-04-16T06:56:43;24.30;;;13.18;;
41629;SDS011;27322;49.488;8.480;2023-04-16T06:59:09;23.85;;;13.40;;
41629;SDS011;27322;49.488;8.480;2023-04-16T07:01:34;22.98;;;13.35;;
41629;SDS011;27322;49.488;8.480;2023-04-16T07:04:00;23.10;;;13.13;;
41629;SDS011;27322;49.488;8.480;2023-04-16T07:06:26;22.98;;;13.38;;
41629;SDS011;27322;49.488;8.480;2023-04-16T07:08:51;24.42;;;14.23;;
41629;SDS011;27322;49.488;8.480;2023-04-16T07:11:17;24.58;;;13.25;;
41629;SDS011;27322;49.488;8.480;2023-04-16T07:13:43;22.92;;;13.23;;
41629;SDS011;27322;49.488;8.480;2023-04-16T07:16:09;26.10;;;14.13;;
41629;SDS011;27322;49.488;8.480;2023-04-16T07:18:34;25.13;;;13.55;;
41629;SDS011;27322;49.488;8.480;2023-04-16T07:21:00;26.63;;;13.57;;
41629;SDS011;27322;49.488;8.480;2023-04-16T07:23:26;24.42;;;13.80;;
41629;SDS011;27322;49.488;8.480;2023-04-16T07:25:52;24.00;;;13.35;;
41629;SDS011;27322;49.488;8.480;2023-04-16T07:28:17;23.85;;;12.60;;
41629;SDS011;27322;49.488;8.480;2023-04-16T07:30:43;23.80;;;13.07;;
41629;SDS011;27322;49.488;8.480;2023-04-16T07:33:08;24.70;;;14.00;;
41629;SDS011;27322;49.488;8.480;2023-04-16T07:35:34;23.25;;;13.35;;
41629;SDS011;27322;49.488;8.480;2023-04-16T07:38:00;23.42;;;12.40;;
41629;SDS011;27322;49.488;8.480;2023-04-16T07:40:26;22.77;;;13.05;;
41629;SDS011;27322;49.488;8.480;2023-04-16T07:42:52;23.70;;;12.73;;
41629;SDS011;27322;49.488;8.480;2023-04-16T07:45:18;20.33;;;12.00;;
41629;SDS011;27322;49.488;8.480;2023-04-16T07:47:44;26.58;;;13.13;;
41629;SDS011;27322;49.488;8.480;2023-04-16T07:50:10;22.75;;;12.32;;
41629;SDS011;27322;49.488;8.480;2023-04-16T07:52:36;21.10;;;11.77;;
41629;SDS011;27322;49.488;8.480;2023-04-16T07:55:05;26.35;;;12.32;;
41629;SDS011;27322;49.488;8.480;2023-04-16T07:57:33;22.92;;;12.00;;
41629;SDS011;27322;49.488;8.480;2023-04-16T07:59:59;38.72;;;14.20;;
41629;SDS011;27322;49.488;8.480;2023-04-16T08:02:29;21.23;;;12.23;;
41629;SDS011;27322;49.488;8.480;2023-04-16T08:04:54;21.83;;;11.95;;
41629;SDS011;27322;49.488;8.480;2023-04-16T08:07:20;21.73;;;12.57;;
41629;SDS011;27322;49.488;8.480;2023-04-16T08:09:46;22.05;;;12.30;;
41629;SDS011;27322;49.488;8.480;2023-04-16T08:12:13;21.00;;;12.18;;
41629;SDS011;27322;49.488;8.480;2023-04-16T08:14:41;21.60;;;11.52;;
41629;SDS011;27322;49.488;8.480;2023-04-16T08:17:06;21.00;;;11.38;;
41629;SDS011;27322;49.488;8.480;2023-04-16T08:19:32;20.65;;;11.30;;
41629;SDS011;27322;49.488;8.480;2023-04-16T08:21:58;17.55;;;10.55;;
41629;SDS011;27322;49.488;8.480;2023-04-16T08:24:24;17.63;;;11.05;;
41629;SDS011;27322;49.488;8.480;2023-04-16T08:26:50;20.10;;;11.38;;
41629;SDS011;27322;49.488;8.480;2023-04-16T08:29:16;19.35;;;11.00;;
41629;SDS011;27322;49.488;8.480;2023-04-16T08:31:41;20.23;;;11.88;;
41629;SDS011;27322;49.488;8.480;2023-04-16T08:34:07;20.48;;;10.90;;
41629;SDS011;27322;49.488;8.480;2023-04-16T08:36:35;18.55;;;10.82;;
41629;SDS011;27322;49.488;8.480;2023-04-16T08:39:01;17.02;;;9.75;;
41629;SDS011;27322;49.488;8.480;2023-04-16T08:41:26;18.10;;;10.07;;
41629;SDS011;27322;49.488;8.480;2023-04-16T08:43:56;17.15;;;9.88;;
41629;SDS011;27322;49.488;8.480;2023-04-16T08:46:24;16.85;;;9.70;;
41629;SDS011;27322;49.488;8.480;2023-04-16T08:48:52;18.52;;;9.85;;
41629;SDS011;27322;49.488;8.480;2023-04-16T08:51:20;16.00;;;9.50;;
41629;SDS011;27322;49.488;8.480;2023-04-16T08:53:48;18.63;;;10.02;;
41629;SDS011;27322;49.488;8.480;2023-04-16T08:56:16;20.02;;;11.00;;
41629;SDS011;27322;49.488;8.480;2023-04-16T08:58:45;17.60;;;9.57;;
41629;SDS011;27322;49.488;8.480;2023-04-16T09:01:13;19.48;;;9.63;;
41629;SDS011;27322;49.488;8.480;2023-04-16T09:03:39;15.05;;;9.65;;
41629;SDS011;27322;49.488;8.480;2023-04-16T09:06:05;14.98;;;8.88;;
41629;SDS011;27322;49.488;8.480;2023-04-16T09:08:32;21.08;;;9.38;;
41629;SDS011;27322;49.488;8.480;2023-04-16T09:11:00;15.77;;;9.00;;
41629;SDS011;27322;49.488;8.480;2023-04-16T09:13:25;15.32;;;8.70;;
41629;SDS011;27322;49.488;8.480;2023-04-16T09:15:52;15.68;;;9.05;;
41629;SDS011;27322;49.488;8.480;2023-04-16T09:18:18;14.98;;;8.63;;
41629;SDS011;27322;49.488;8.480;2023-04-16T09:20:45;14.20;;;8.93;;
41629;SDS011;27322;49.488;8.480;2023-04-16T09:23:12;19.73;;;9.55;;
41629;SDS011;27322;49.488;8.480;2023-04-16T09:25:38;15.60;;;9.50;;
41629;SDS011;27322;49.488;8.480;2023-04-16T09:28:04;17.35;;;8.93;;
41629;SDS011;27322;49.488;8.480;2023-04-16T09:30:29;14.88;;;8.80;;
41629;SDS011;27322;49.488;8.480;2023-04-16T09:33:16;17.88;;;9.75;;
41629;SDS011;27322;49.488;8.480;2023-04-16T09:35:49;14.77;;;8.80;;
41629;SDS011;27322;49.488;8.480;2023-04-16T09:38:16;16.73;;;9.52;;
41629;SDS011;27322;49.488;8.480;2023-04-16T09:40:42;15.32;;;9.10;;
41629;SDS011;27322;49.488;8.480;2023-04-16T09:43:15;18.38;;;9.95;;
41629;SDS011;27322;49.488;8.480;2023-04-16T09:45:51;18.77;;;10.50;;
41629;SDS011;27322;49.488;8.480;2023-04-16T09:48:28;20.50;;;10.35;;
41629;SDS011;27322;49.488;8.480;2023-04-16T09:50:56;17.48;;;9.82;;
41629;SDS011;27322;49.488;8.480;2023-04-16T09:53:23;20.63;;;11.23;;
41629;SDS011;27322;49.488;8.480;2023-04-16T09:55:59;20.80;;;10.80;;
41629;SDS011;27322;49.488;8.480;2023-04-16T10:01:03;21.00;;;11.15;;
41629;SDS011;27322;49.488;8.480;2023-04-16T10:03:31;23.08;;;11.95;;
41629;SDS011;27322;49.488;8.480;2023-04-16T10:05:58;23.02;;;12.32;;
41629;SDS011;27322;49.488;8.480;2023-04-16T10:08:43;21.13;;;11.52;;
41629;SDS011;27322;49.488;8.480;2023-04-16T10:11:16;19.85;;;11.57;;
41629;SDS011;27322;49.488;8.480;2023-04-16T10:13:42;22.70;;;12.27;;
41629;SDS011;27322;49.488;8.480;2023-04-16T10:16:08;22.65;;;12.60;;
41629;SDS011;27322;49.488;8.480;2023-04-16T10:18:35;22.65;;;12.30;;
41629;SDS011;27322;49.488;8.480;2023-04-16T10:21:02;23.08;;;12.32;;
41629;SDS011;27322;49.488;8.480;2023-04-16T10:23:28;24.30;;;12.85;;
41629;SDS011;27322;49.488;8.480;2023-04-16T10:25:54;24.17;;;12.18;;
41629;SDS011;27322;49.488;8.480;2023-04-16T10:28:20;23.17;;;12.98;;
41629;SDS011;27322;49.488;8.480;2023-04-16T10:30:47;23.17;;;12.77;;
41629;SDS011;27322;49.488;8.480;2023-04-16T10:33:21;24.50;;;13.57;;
41629;SDS011;27322;49.488;8.480;2023-04-16T10:35:51;23.98;;;13.35;;
41629;SDS011;27322;49.488;8.480;2023-04-16T10:38:31;26.77;;;12.85;;
41629;SDS011;27322;49.488;8.480;2023-04-16T10:41:06;26.15;;;13.07;;
41629;SDS011;27322;49.488;8.480;2023-04-16T10:43:39;24.52;;;13.30;;
41629;SDS011;27322;49.488;8.480;2023-04-16T10:48:53;22.52;;;12.45;;
41629;SDS011;27322;49.488;8.480;2023-04-16T10:51:24;22.90;;;12.93;;
41629;SDS011;27322;49.488;8.480;2023-04-16T10:53:53;21.50;;;12.15;;
41629;SDS011;27322;49.488;8.480;2023-04-16T10:56:23;25.05;;;13.48;;
41629;SDS011;27322;49.488;8.480;2023-04-16T10:58:51;20.10;;;12.00;;
41629;SDS011;27322;49.488;8.480;2023-04-16T11:01:19;24.58;;;13.35;;
41629;SDS011;27322;49.488;8.480;2023-04-16T11:03:55;24.08;;;13.30;;
41629;SDS011;27322;49.488;8.480;2023-04-16T11:06:24;22.63;;;13.45;;
41629;SDS011;27322;49.488;8.480;2023-04-16T11:08:51;24.27;;;13.23;;
41629;SDS011;27322;49.488;8.480;2023-04-16T11:11:17;23.80;;;13.48;;
41629;SDS011;27322;49.488;8.480;2023-04-16T11:13:44;28.02;;;13.93;;
41629;SDS011;27322;49.488;8.480;2023-04-16T11:16:13;21.63;;;12.93;;
41629;SDS011;27322;49.488;8.480;2023-04-16T11:18:40;24.25;;;13.40;;
41629;SDS011;27322;49.488;8.480;2023-04-16T11:21:09;24.55;;;14.40;;
41629;SDS011;27322;49.488;8.480;2023-04-16T11:23:46;23.85;;;14.20;;
41629;SDS011;27322;49.488;8.480;2023-04-16T11:26:19;24.40;;;13.10;;
41629;SDS011;27322;49.488;8.480;2023-04-16T11:28:47;23.60;;;13.43;;
41629;SDS011;27322;49.488;8.480;2023-04-16T11:31:12;25.92;;;14.10;;
41629;SDS011;27322;49.488;8.480;2023-04-16T11:33:38;23.42;;;13.40;;
41629;SDS011;27322;49.488;8.480;2023-04-16T11:36:04;23.52;;;13.20;;
41629;SDS011;27322;49.488;8.480;2023-04-16T11:38:34;27.00;;;14.82;;
41629;SDS011;27322;49.488;8.480;2023-04-16T11:41:01;22.52;;;13.00;;
41629;SDS011;27322;49.488;8.480;2023-04-16T11:43:26;23.52;;;14.63;;
41629;SDS011;27322;49.488;8.480;2023-04-16T11:45:59;26.50;;;15.18;;
41629;SDS011;27322;49.488;8.480;2023-04-16T11:51:17;26.55;;;13.85;;
41629;SDS011;27322;49.488;8.480;2023-04-16T11:53:47;25.98;;;14.65;;
41629;SDS011;27322;49.488;8.480;2023-04-16T11:56:14;24.52;;;14.35;;
41629;SDS011;27322;49.488;8.480;2023-04-16T11:59:04;24.67;;;14.18;;
41629;SDS011;27322;49.488;8.480;2023-04-16T12:01:41;25.25;;;14.30;;
41629;SDS011;27322;49.488;8.480;2023-04-16T12:04:09;23.70;;;13.90;;
41629;SDS011;27322;49.488;8.480;2023-04-16T12:06:37;23.00;;;13.90;;
41629;SDS011;27322;49.488;8.480;2023-04-16T12:12:05;26.13;;;14.10;;
41629;SDS011;27322;49.488;8.480;2023-04-16T12:14:51;32.90;;;15.90;;
41629;SDS011;27322;49.488;8.480;2023-04-16T12:17:19;29.63;;;14.27;;
41629;SDS011;27322;49.488;8.480;2023-04-16T12:19:49;21.90;;;13.30;;
41629;SDS011;27322;49.488;8.480;2023-04-16T12:22:16;25.52;;;14.23;;
41629;SDS011;27322;49.488;8.480;2023-04-16T12:24:42;23.00;;;13.93;;
41629;SDS011;27322;49.488;8.480;2023-04-16T12:27:07;23.17;;;14.07;;
41629;SDS011;27322;49.488;8.480;2023-04-16T12:29:34;22.92;;;13.40;;
41629;SDS011;27322;49.488;8.480;2023-04-16T12:31:59;22.00;;;13.05;;
41629;SDS011;27322;49.488;8.480;2023-04-16T12:34:25;23.27;;;13.98;;
41629;SDS011;27322;49.488;8.480;2023-04-16T12:37:06;23.55;;;13.40;;
41629;SDS011;27322;49.488;8.480;2023-04-16T12:39:33;23.20;;;13.52;;
41629;SDS011;27322;49.488;8.480;2023-04-16T12:41:59;24.83;;;13.73;;
41629;SDS011;27322;49.488;8.480;2023-04-16T12:44:25;21.75;;;13.27;;
41629;SDS011;27322;49.488;8.480;2023-04-16T12:46:51;23.90;;;13.95;;
41629;SDS011;27322;49.488;8.480;2023-04-16T12:49:17;23.40;;;13.68;;
41629;SDS011;27322;49.488;8.480;2023-04-16T12:51:43;19.27;;;12.52;;
41629;SDS011;27322;49.488;8.480;2023-04-16T12:54:08;27.13;;;14.23;;
41629;SDS011;27322;49.488;8.480;2023-04-16T12:56:34;22.83;;;13.15;;
41629;SDS011;27322;49.488;8.480;2023-04-16T12:59:00;23.90;;;13.43;;
41629;SDS011;27322;49.488;8.480;2023-04-16T13:01:26;20.75;;;12.40;;
41629;SDS011;27322;49.488;8.480;2023-04-16T13:03:51;21.75;;;13.13;;
41629;SDS011;27322;49.488;8.480;2023-04-16T13:06:19;21.25;;;13.18;;
41629;SDS011;27322;49.488;8.480;2023-04-16T13:08:45;24.38;;;14.38;;
41629;SDS011;27322;49.488;8.480;2023-04-16T13:11:10;24.90;;;14.57;;
41629;SDS011;27322;49.488;8.480;2023-04-16T13:13:36;20.83;;;12.85;;
41629;SDS011;27322;49.488;8.480;2023-04-16T13:16:02;23.73;;;13.90;;
41629;SDS011;27322;49.488;8.480;2023-04-16T13:18:30;24.98;;;14.50;;
41629;SDS011;27322;49.488;8.480;2023-04-16T13:20:56;24.33;;;13.90;;
41629;SDS011;27322;49.488;8.480;2023-04-16T13:23:22;20.08;;;12.45;;
41629;SDS011;27322;49.488;8.480;2023-04-16T13:25:48;21.90;;;13.88;;
41629;SDS011;27322;49.488;8.480;2023-04-16T13:28:13;22.75;;;13.32;;
41629;SDS011;27322;49.488;8.480;2023-04-16T13:30:39;24.38;;;14.82;;
41629;SDS011;27322;49.488;8.480;2023-04-16T13:33:05;22.10;;;14.20;;
41629;SDS011;27322;49.488;8.480;2023-04-16T13:35:31;28.45;;;15.60;;
41629;SDS011;27322;49.488;8.480;2023-04-16T13:37:57;28.42;;;16.30;;
41629;SDS011;27322;49.488;8.480;2023-04-16T13:40:22;25.00;;;14.85;;
41629;SDS011;27322;49.488;8.480;2023-04-16T13:42:48;26.88;;;15.52;;
41629;SDS011;27322;49.488;8.480;2023-04-16T13:45:13;25.92;;;15.15;;
41629;SDS011;27322;49.488;8.480;2023-04-16T13:47:39;25.85;;;15.65;;
41629;SDS011;27322;49.488;8.480;2023-04-16T13:50:06;25.10;;;15.90;;
41629;SDS011;27322;49.488;8.480;2023-04-16T13:52:32;25.92;;;15.45;;
41629;SDS011;27322;49.488;8.480;2023-04-16T13:54:58;24.92;;;15.07;;
41629;SDS011;27322;49.488;8.480;2023-04-16T13:57:23;24.83;;;15.75;;
41629;SDS011;27322;49.488;8.480;2023-04-16T13:59:50;26.73;;;16.48;;
41629;SDS011;27322;49.488;8.480;2023-04-16T14:02:15;26.15;;;15.98;;
41629;SDS011;27322;49.488;8.480;2023-04-16T14:04:41;23.88;;;15.60;;
41629;SDS011;27322;49.488;8.480;2023-04-16T14:07:06;25.77;;;15.40;;
41629;SDS011;27322;49.488;8.480;2023-04-16T14:09:32;28.40;;;17.25;;
41629;SDS011;27322;49.488;8.480;2023-04-16T14:11:58;27.23;;;16.33;;
41629;SDS011;27322;49.488;8.480;2023-04-16T14:14:23;25.27;;;15.95;;
41629;SDS011;27322;49.488;8.480;2023-04-16T14:16:50;28.58;;;17.05;;
41629;SDS011;27322;49.488;8.480;2023-04-16T14:19:17;27.48;;;17.00;;
41629;SDS011;27322;49.488;8.480;2023-04-16T14:21:43;27.17;;;16.70;;
41629;SDS011;27322;49.488;8.480;2023-04-16T14:24:08;28.38;;;17.13;;
41629;SDS011;27322;49.488;8.480;2023-04-16T14:26:34;28.02;;;16.40;;
41629;SDS011;27322;49.488;8.480;2023-04-16T14:29:00;26.60;;;17.50;;
41629;SDS011;27322;49.488;8.480;2023-04-16T14:31:25;28.33;;;17.50;;